Dades meteomassalio
Diari Summary for Setembre 11, 2017 Units:  Metric    English   Both
« Previous Day
Next Day »
Diari Semanal Mensual Anual Personalitzat
  Maxima: Minima: Mijana:
Temperatura: 28.9 °C 10.0 °C 20.7 °C
Rosada: 14.9 °C 2.7 °C 10 °C
Humitat: 70 % 41 % 51 %
Velocitat del vent: 46.3 km/h 0.0 km/h 17.8 km/h
Racha vent: 46.3 km/h - -
Vent:- - SW
Pressio: 1015.8 hPa 1011.7 hPa -
Pluja: 0.0 mm    
Historical Graphs
 
 
Tabular Data for Setembre 11, 2017
Time Temperature Dew Point Pressure Wind Wind Speed Wind Gust Humidity Rainfall Rate (Hourly) solar Conditions
00:04 18.3 °C 7.7 °C 1015.5 hPa SSW 22.2 km/h 22.2 km/h 50 % 0.0 mm 0.0 W/m2 CLR
00:09 18.9 °C 8.2 °C 1015.5 hPa SW 18.5 km/h 18.5 km/h 50 % 0.0 mm 0.0 W/m2 CLR
00:14 18.3 °C 7.7 °C 1015.8 hPa SSW 14.8 km/h 14.8 km/h 50 % 0.0 mm 0.0 W/m2 CLR
00:19 18.3 °C 8.0 °C 1015.5 hPa SSW 18.5 km/h 18.5 km/h 51 % 0.0 mm 0.0 W/m2 CLR
00:24 18.3 °C 8.0 °C 1015.5 hPa SSW 18.5 km/h 18.5 km/h 51 % 0.0 mm 0.0 W/m2 CLR
00:29 18.3 °C 8.0 °C 1015.5 hPa SSW 14.8 km/h 14.8 km/h 51 % 0.0 mm 0.0 W/m2 CLR
00:34 18.3 °C 8.0 °C 1015.5 hPa SSW 16.7 km/h 16.7 km/h 51 % 0.0 mm 0.0 W/m2 CLR
00:39 18.3 °C 8.0 °C 1015.5 hPa SW 14.8 km/h 14.8 km/h 51 % 0.0 mm 0.0 W/m2 CLR
00:44 18.3 °C 8.0 °C 1015.8 hPa SSW 14.8 km/h 14.8 km/h 51 % 0.0 mm 0.0 W/m2 CLR
00:49 18.3 °C 8.0 °C 1015.5 hPa SSW 16.7 km/h 16.7 km/h 51 % 0.0 mm 0.0 W/m2 CLR
00:54 17.8 °C 7.5 °C 1015.8 hPa SSW 18.5 km/h 18.5 km/h 51 % 0.0 mm 0.0 W/m2 CLR
00:59 17.8 °C 7.5 °C 1015.5 hPa SSW 16.7 km/h 16.7 km/h 51 % 0.0 mm 0.0 W/m2 CLR
01:04 17.8 °C 7.5 °C 1015.8 hPa SSW 14.8 km/h 14.8 km/h 51 % 0.0 mm 0.0 W/m2 CLR
01:09 17.8 °C 7.5 °C 1015.8 hPa SSW 13.0 km/h 13.0 km/h 51 % 0.0 mm 0.0 W/m2 CLR
01:14 17.8 °C 7.5 °C 1015.5 hPa South 22.2 km/h 22.2 km/h 51 % 0.0 mm 0.0 W/m2 CLR
01:19 17.8 °C 7.5 °C 1015.5 hPa SSW 24.1 km/h 24.1 km/h 51 % 0.0 mm 0.0 W/m2 CLR
01:24 17.2 °C 7.0 °C 1015.5 hPa SW 18.5 km/h 18.5 km/h 51 % 0.0 mm 0.0 W/m2 CLR
01:29 17.2 °C 7.3 °C 1015.5 hPa SW 24.1 km/h 24.1 km/h 52 % 0.0 mm 0.0 W/m2 CLR
01:34 17.2 °C 7.3 °C 1015.5 hPa SSW 17.7 km/h 17.7 km/h 52 % 0.0 mm 0.0 W/m2 CLR
01:39 17.2 °C 7.3 °C 1015.5 hPa SSW 16.7 km/h 16.7 km/h 52 % 0.0 mm 0.0 W/m2 CLR
01:44 17.2 °C 7.3 °C 1015.5 hPa SSW 14.8 km/h 14.8 km/h 52 % 0.0 mm 0.0 W/m2 CLR
01:49 17.2 °C 7.6 °C 1015.1 hPa SW 14.5 km/h 14.5 km/h 53 % 0.0 mm 0.0 W/m2 CLR
01:54 16.7 °C 7.1 °C 1015.5 hPa SSW 9.3 km/h 9.3 km/h 53 % 0.0 mm 0.0 W/m2 CLR
01:59 16.7 °C 7.1 °C 1015.1 hPa SSW 11.1 km/h 11.1 km/h 53 % 0.0 mm 0.0 W/m2 CLR
02:04 16.1 °C 6.8 °C 1015.1 hPa Calm     54 % 0.0 mm 0.0 W/m2 CLR
02:09 15.6 °C 6.3 °C 1015.1 hPa SSW 14.8 km/h 14.8 km/h 54 % 0.0 mm 0.0 W/m2 CLR
02:14 15.0 °C 5.8 °C 1015.1 hPa SSW 9.7 km/h 9.7 km/h 54 % 0.0 mm 0.0 W/m2 CLR
02:19 15.0 °C 5.8 °C 1015.1 hPa South 11.1 km/h 11.1 km/h 54 % 0.0 mm 0.0 W/m2 CLR
02:24 15.6 °C 6.6 °C 1015.1 hPa SSE 5.6 km/h 5.6 km/h 55 % 0.0 mm 0.0 W/m2 CLR
02:29 16.1 °C 7.3 °C 1015.1 hPa Calm     56 % 0.0 mm 0.0 W/m2 CLR
02:34 15.6 °C 7.1 °C 1015.1 hPa Calm     57 % 0.0 mm 0.0 W/m2 CLR
02:39 15.6 °C 7.1 °C 1015.1 hPa Calm     57 % 0.0 mm 0.0 W/m2 CLR
02:44 15.6 °C 6.8 °C 1015.1 hPa SSW 1.9 km/h   56 % 0.0 mm 0.0 W/m2 CLR
02:49 15.0 °C 6.3 °C 1015.1 hPa South 5.6 km/h 5.6 km/h 56 % 0.0 mm 0.0 W/m2 CLR
02:54 15.0 °C 6.0 °C 1015.1 hPa SSE 5.6 km/h 5.6 km/h 55 % 0.0 mm 0.0 W/m2 CLR
02:59 15.0 °C 6.0 °C 1014.8 hPa Calm     55 % 0.0 mm 0.0 W/m2 CLR
03:04 15.6 °C 6.6 °C 1015.1 hPa Calm     55 % 0.0 mm 0.0 W/m2 CLR
03:06 15.6 °C 6.6 °C 1015.1 hPa Calm     55 % 0.0 mm 0.0 W/m2 CLR
03:11 15.6 °C 6.8 °C 1015.1 hPa Calm     56 % 0.0 mm 0.0 W/m2 CLR
03:16 15.6 °C 6.8 °C 1015.1 hPa Calm     56 % 0.0 mm 0.0 W/m2 CLR
03:21 15.6 °C 6.8 °C 1014.8 hPa Calm     56 % 0.0 mm 0.0 W/m2 CLR
03:26 15.6 °C 6.8 °C 1014.8 hPa SSW 14.5 km/h 14.5 km/h 56 % 0.0 mm 0.0 W/m2 CLR
03:31 16.1 °C 6.8 °C 1014.8 hPa SSW 16.7 km/h 16.7 km/h 54 % 0.0 mm 0.0 W/m2 CLR
03:36 16.1 °C 6.5 °C 1014.8 hPa SSW 16.7 km/h 16.7 km/h 53 % 0.0 mm 0.0 W/m2 CLR
03:41 15.6 °C 6.0 °C 1014.8 hPa SSW 18.5 km/h 18.5 km/h 53 % 0.0 mm 0.0 W/m2 CLR
03:46 15.6 °C 6.0 °C 1014.8 hPa South 12.9 km/h 12.9 km/h 53 % 0.0 mm 0.0 W/m2 CLR
03:51 15.0 °C 5.5 °C 1014.4 hPa South 9.7 km/h 9.7 km/h 53 % 0.0 mm 0.0 W/m2 CLR
03:56 15.6 °C 6.0 °C 1014.4 hPa South 5.6 km/h 5.6 km/h 53 % 0.0 mm 0.0 W/m2 CLR
04:01 16.1 °C 6.5 °C 1014.4 hPa SSW 11.3 km/h 11.3 km/h 53 % 0.0 mm 0.0 W/m2 CLR
04:06 16.1 °C 6.8 °C 1014.8 hPa South 18.5 km/h 18.5 km/h 54 % 0.0 mm 0.0 W/m2 CLR
04:11 16.1 °C 6.8 °C 1014.4 hPa South 3.7 km/h 3.7 km/h 54 % 0.0 mm 0.0 W/m2 CLR
04:16 15.6 °C 6.8 °C 1014.8 hPa SSW 16.7 km/h 16.7 km/h 56 % 0.0 mm 0.0 W/m2 CLR
04:21 15.0 °C 6.3 °C 1014.4 hPa SSW 18.5 km/h 18.5 km/h 56 % 0.0 mm 0.0 W/m2 CLR
04:26 15.0 °C 6.3 °C 1014.4 hPa SW 19.3 km/h 19.3 km/h 56 % 0.0 mm 0.0 W/m2 CLR
04:31 15.6 °C 6.8 °C 1014.4 hPa SSW 20.4 km/h 20.4 km/h 56 % 0.0 mm 0.0 W/m2 CLR
04:36 16.1 °C 7.3 °C 1014.4 hPa SSW 18.5 km/h 18.5 km/h 56 % 0.0 mm 0.0 W/m2 CLR
04:41 16.7 °C 7.8 °C 1014.4 hPa SSW 16.1 km/h 16.1 km/h 56 % 0.0 mm 0.0 W/m2 CLR
04:42 16.7 °C 7.8 °C 1014.4 hPa SW 16.7 km/h 16.7 km/h 56 % 0.0 mm 0.0 W/m2 CLR
04:47 16.7 °C 7.8 °C 1014.4 hPa SSW 16.7 km/h 16.7 km/h 56 % 0.0 mm 0.0 W/m2 CLR
04:52 16.7 °C 8.1 °C 1014.1 hPa SSW 18.5 km/h 18.5 km/h 57 % 0.0 mm 0.0 W/m2 CLR
04:57 16.7 °C 8.1 °C 1014.1 hPa SSW 14.8 km/h 14.8 km/h 57 % 0.0 mm 0.0 W/m2 CLR
05:02 16.1 °C 7.6 °C 1014.4 hPa SSW 13.0 km/h 13.0 km/h 57 % 0.0 mm 0.0 W/m2 CLR
05:07 16.1 °C 7.6 °C 1014.1 hPa SSW 18.5 km/h 18.5 km/h 57 % 0.0 mm 0.0 W/m2 CLR
05:12 15.6 °C 7.1 °C 1014.1 hPa SSW 16.7 km/h 16.7 km/h 57 % 0.0 mm 0.0 W/m2 CLR
05:20 15.0 °C 6.6 °C 1014.1 hPa SSW 16.7 km/h 16.7 km/h 57 % 0.0 mm 0.0 W/m2 CLR
05:23 15.0 °C 6.6 °C 1014.1 hPa SW 19.3 km/h 19.3 km/h 57 % 0.0 mm 0.0 W/m2 CLR
05:26 15.0 °C 6.3 °C 1014.1 hPa SSW 22.2 km/h 22.2 km/h 56 % 0.0 mm 0.0 W/m2 CLR
05:27 15.0 °C 6.3 °C 1014.1 hPa SSW 18.5 km/h 18.5 km/h 56 % 0.0 mm 0.0 W/m2 CLR
05:31 15.0 °C 6.3 °C 1014.1 hPa SSW 18.5 km/h 18.5 km/h 56 % 0.0 mm 0.0 W/m2 CLR
05:35 14.4 °C 5.8 °C 1014.1 hPa SSW 16.7 km/h 16.7 km/h 56 % 0.0 mm 0.0 W/m2 CLR
05:40 14.4 °C 5.8 °C 1014.1 hPa SSW 18.5 km/h 18.5 km/h 56 % 0.0 mm 0.0 W/m2 CLR
05:45 13.9 °C 5.2 °C 1014.1 hPa SSW 14.8 km/h 14.8 km/h 56 % 0.0 mm 0.0 W/m2 CLR
05:50 13.3 °C 4.7 °C 1014.1 hPa SW 17.7 km/h 17.7 km/h 56 % 0.0 mm 0.0 W/m2 CLR
05:55 13.3 °C 5.0 °C 1014.1 hPa SW 16.7 km/h 16.7 km/h 57 % 0.0 mm 0.0 W/m2 CLR
06:00 12.8 °C 4.4 °C 1014.1 hPa SSW 18.5 km/h 18.5 km/h 57 % 0.0 mm 0.0 W/m2 CLR
06:05 12.8 °C 4.4 °C 1013.8 hPa SW 18.5 km/h 18.5 km/h 57 % 0.0 mm 0.0 W/m2 CLR
06:10 12.2 °C 3.9 °C 1014.1 hPa SW 14.8 km/h 14.8 km/h 57 % 0.0 mm 0.0 W/m2 CLR
06:15 12.2 °C 3.9 °C 1014.1 hPa SW 16.7 km/h 16.7 km/h 57 % 0.0 mm 0.0 W/m2 CLR
06:20 12.2 °C 3.9 °C 1013.8 hPa SW 14.8 km/h 14.8 km/h 57 % 0.0 mm 0.0 W/m2 CLR
06:26 12.2 °C 4.2 °C 1014.1 hPa SSW 16.7 km/h 16.7 km/h 58 % 0.0 mm 0.0 W/m2 CLR
06:31 12.2 °C 4.2 °C 1013.8 hPa SW 16.7 km/h 16.7 km/h 58 % 0.0 mm 0.0 W/m2 CLR
06:36 11.7 °C 3.7 °C 1013.8 hPa SW 18.5 km/h 18.5 km/h 58 % 0.0 mm 0.0 W/m2 CLR
06:41 11.7 °C 3.7 °C 1013.8 hPa SW 18.5 km/h 18.5 km/h 58 % 0.0 mm 0.0 W/m2 CLR
06:46 11.7 °C 3.7 °C 1013.8 hPa SSW 11.1 km/h 11.1 km/h 58 % 0.0 mm 0.0 W/m2 CLR
06:51 11.7 °C 3.7 °C 1013.8 hPa Calm     58 % 0.0 mm 0.0 W/m2 CLR
06:56 11.1 °C 3.4 °C 1014.1 hPa Calm     59 % 0.0 mm 0.0 W/m2 CLR
07:01 11.1 °C 3.9 °C 1014.1 hPa Calm     61 % 0.0 mm 0.0 W/m2 CLR
07:06 11.1 °C 4.3 °C 1014.1 hPa Calm     63 % 0.0 mm 0.0 W/m2 CLR
07:11 11.1 °C 4.8 °C 1014.1 hPa Calm     65 % 0.0 mm 0.0 W/m2 CLR
07:16 11.1 °C 5.0 °C 1014.1 hPa Calm     66 % 0.0 mm 0.0 W/m2 CLR
07:21 10.6 °C 4.4 °C 1014.1 hPa Calm     66 % 0.0 mm 0.0 W/m2 CLR
07:26 10.6 °C 4.7 °C 1014.1 hPa Calm     67 % 0.0 mm 0.0 W/m2 OVC
07:31 10.6 °C 4.7 °C 1014.1 hPa Calm     67 % 0.0 mm 0.0 W/m2 OVC
07:36 10.6 °C 4.9 °C 1014.1 hPa Calm     68 % 0.0 mm 5.0 W/m2 OVC
07:41 10.6 °C 4.9 °C 1014.1 hPa Calm     68 % 0.0 mm 7.0 W/m2 BKN
07:46 10.6 °C 5.1 °C 1014.1 hPa Calm     69 % 0.0 mm 9.0 W/m2 BKN
07:51 10.0 °C 4.6 °C 1014.1 hPa Calm     69 % 0.0 mm 11.0 W/m2 BKN
07:56 10.6 °C 5.3 °C 1014.1 hPa Calm     70 % 0.0 mm 12.0 W/m2 BKN
08:01 10.6 °C 5.1 °C 1014.1 hPa Calm     69 % 0.0 mm 16.0 W/m2 BKN
08:06 10.6 °C 5.1 °C 1014.1 hPa Calm     69 % 0.0 mm 19.0 W/m2 BKN
08:11 10.6 °C 4.7 °C 1014.1 hPa Calm     67 % 0.0 mm 32.0 W/m2 BKN
08:16 10.6 °C 4.2 °C 1014.1 hPa Calm     65 % 0.0 mm 44.0 W/m2 BKN
08:21 11.1 °C 4.3 °C 1014.1 hPa Calm     63 % 0.0 mm 53.0 W/m2 SCT
08:26 11.1 °C 3.4 °C 1014.1 hPa Calm     59 % 0.0 mm 60.0 W/m2 SCT
08:31 11.1 °C 2.9 °C 1014.1 hPa Calm   0.5 km/h 57 % 0.0 mm 49.0 W/m2 SCT
08:36 11.7 °C 2.7 °C 1014.1 hPa South 5.6 km/h 5.6 km/h 54 % 0.0 mm 25.0 W/m2 BKN
08:41 12.2 °C 2.7 °C 1014.4 hPa South 7.4 km/h 7.4 km/h 52 % 0.0 mm 25.0 W/m2 BKN
08:46 13.9 °C 3.6 °C 1014.4 hPa South 8.0 km/h 8.0 km/h 50 % 0.0 mm 28.0 W/m2 BKN
08:51 14.4 °C 3.6 °C 1014.4 hPa SSW 7.4 km/h 7.4 km/h 48 % 0.0 mm 156.0 W/m2 BKN
08:56 15.6 °C 3.9 °C 1014.4 hPa SSW 18.5 km/h 18.5 km/h 46 % 0.0 mm 174.0 W/m2 FEW
09:01 16.1 °C 4.2 °C 1014.4 hPa South 13.0 km/h 13.0 km/h 45 % 0.0 mm 195.0 W/m2 CLR
09:06 17.2 °C 4.8 °C 1014.4 hPa South 18.5 km/h 18.5 km/h 44 % 0.0 mm 213.0 W/m2 CLR
09:12 17.8 °C 5.3 °C 1014.4 hPa South 20.4 km/h 20.4 km/h 44 % 0.0 mm 227.0 W/m2 CLR
09:17 18.3 °C 5.8 °C 1014.4 hPa SSW 11.3 km/h 11.3 km/h 44 % 0.0 mm 246.0 W/m2 CLR
09:22 18.9 °C 6.4 °C 1014.1 hPa SSW 14.8 km/h 14.8 km/h 44 % 0.0 mm 264.0 W/m2 CLR
09:27 19.4 °C 6.9 °C 1014.1 hPa SSW 18.5 km/h 18.5 km/h 44 % 0.0 mm 279.0 W/m2 CLR
09:32 20.0 °C 7.4 °C 1014.1 hPa SSW 20.4 km/h 20.4 km/h 44 % 0.0 mm 294.0 W/m2 CLR
09:37 20.6 °C 7.9 °C 1014.1 hPa SSW 24.1 km/h 24.1 km/h 44 % 0.0 mm 309.0 W/m2 CLR
09:42 20.6 °C 7.9 °C 1014.1 hPa South 20.4 km/h 20.4 km/h 44 % 0.0 mm 327.0 W/m2 CLR
09:47 21.1 °C 8.7 °C 1014.1 hPa SSW 18.5 km/h 18.5 km/h 45 % 0.0 mm 343.0 W/m2 CLR
09:52 21.1 °C 8.7 °C 1014.1 hPa South 13.0 km/h 13.0 km/h 45 % 0.0 mm 357.0 W/m2 CLR
09:57 21.7 °C 9.2 °C 1014.1 hPa SSW 22.2 km/h 22.2 km/h 45 % 0.0 mm 369.0 W/m2 CLR
10:02 21.7 °C 9.6 °C 1014.1 hPa South 25.9 km/h 25.9 km/h 46 % 0.0 mm 385.0 W/m2 CLR
10:07 21.7 °C 9.6 °C 1014.1 hPa SSW 24.1 km/h 24.1 km/h 46 % 0.0 mm 403.0 W/m2 CLR
10:12 22.2 °C 10.1 °C 1014.1 hPa SW 31.5 km/h 31.5 km/h 46 % 0.0 mm 418.0 W/m2 CLR
10:17 22.2 °C 10.1 °C 1014.1 hPa SSW 25.9 km/h 25.9 km/h 46 % 0.0 mm 434.0 W/m2 CLR
10:22 22.2 °C 10.1 °C 1014.1 hPa SSW 24.1 km/h 24.1 km/h 46 % 0.0 mm 448.0 W/m2 CLR
10:27 22.8 °C 10.9 °C 1014.1 hPa SSW 22.2 km/h 22.2 km/h 47 % 0.0 mm 462.0 W/m2 CLR
10:32 22.8 °C 10.6 °C 1014.1 hPa SW 29.6 km/h 29.6 km/h 46 % 0.0 mm 475.0 W/m2 CLR
10:37 23.3 °C 11.4 °C 1014.1 hPa SW 27.8 km/h 27.8 km/h 47 % 0.0 mm 489.0 W/m2 CLR
10:42 23.3 °C 11.4 °C 1014.1 hPa SW 31.5 km/h 31.5 km/h 47 % 0.0 mm 504.0 W/m2 CLR
10:47 23.3 °C 11.7 °C 1014.1 hPa SW 33.8 km/h 33.8 km/h 48 % 0.0 mm 519.0 W/m2 CLR
10:52 23.3 °C 11.4 °C 1014.1 hPa SSW 24.1 km/h 24.1 km/h 47 % 0.0 mm 531.0 W/m2 CLR
10:57 23.3 °C 11.4 °C 1014.4 hPa SW 24.1 km/h 24.1 km/h 47 % 0.0 mm 545.0 W/m2 CLR
11:02 23.9 °C 11.9 °C 1014.1 hPa SW 29.6 km/h 29.6 km/h 47 % 0.0 mm 557.0 W/m2 CLR
11:07 23.9 °C 11.9 °C 1014.1 hPa SSW 24.1 km/h 24.1 km/h 47 % 0.0 mm 570.0 W/m2 CLR
11:12 23.9 °C 12.2 °C 1014.1 hPa SW 24.1 km/h 24.1 km/h 48 % 0.0 mm 580.0 W/m2 CLR
11:17 24.4 °C 12.4 °C 1014.1 hPa South 20.4 km/h 20.4 km/h 47 % 0.0 mm 592.0 W/m2 CLR
11:22 24.4 °C 12.7 °C 1014.1 hPa SW 24.1 km/h 24.1 km/h 48 % 0.0 mm 606.0 W/m2 CLR
11:27 24.4 °C 12.4 °C 1014.1 hPa WSW 22.5 km/h 22.5 km/h 47 % 0.0 mm 617.0 W/m2 CLR
11:32 25.0 °C 13.2 °C 1014.1 hPa WSW 31.5 km/h 31.5 km/h 48 % 0.0 mm 628.0 W/m2 CLR
11:37 25.0 °C 13.2 °C 1014.1 hPa WSW 20.9 km/h 20.9 km/h 48 % 0.0 mm 638.0 W/m2 CLR
11:42 25.0 °C 12.9 °C 1014.1 hPa WSW 27.8 km/h 27.8 km/h 47 % 0.0 mm 650.0 W/m2 CLR
11:47 25.6 °C 13.4 °C 1014.1 hPa SW 29.6 km/h 29.6 km/h 47 % 0.0 mm 659.0 W/m2 CLR
11:52 25.6 °C 13.4 °C 1014.1 hPa West 25.9 km/h 25.9 km/h 47 % 0.0 mm 668.0 W/m2 CLR
11:57 26.1 °C 13.6 °C 1014.1 hPa SW 14.8 km/h 14.8 km/h 46 % 0.0 mm 677.0 W/m2 CLR
12:02 26.1 °C 13.6 °C 1014.1 hPa SW 29.6 km/h 29.6 km/h 46 % 0.0 mm 687.0 W/m2 CLR
12:07 26.1 °C 13.6 °C 1014.1 hPa SW 22.2 km/h 22.2 km/h 46 % 0.0 mm 696.0 W/m2 CLR
12:12 25.6 °C 12.7 °C 1014.1 hPa West 29.6 km/h 29.6 km/h 45 % 0.0 mm 705.0 W/m2 CLR
12:17 25.6 °C 13.1 °C 1014.1 hPa West 33.3 km/h 33.3 km/h 46 % 0.0 mm 712.0 W/m2 CLR
12:22 25.0 °C 12.9 °C 1014.1 hPa WSW 18.5 km/h 18.5 km/h 47 % 0.0 mm 717.0 W/m2 CLR
12:27 25.6 °C 13.1 °C 1014.1 hPa WSW 31.5 km/h 31.5 km/h 46 % 0.0 mm 728.0 W/m2 CLR
12:32 25.6 °C 13.4 °C 1014.1 hPa West 22.2 km/h 22.2 km/h 47 % 0.0 mm 735.0 W/m2 CLR
12:37 25.6 °C 13.1 °C 1013.8 hPa SW 22.5 km/h 22.5 km/h 46 % 0.0 mm 737.0 W/m2 CLR
12:42 25.6 °C 13.1 °C 1013.8 hPa West 25.9 km/h 25.9 km/h 46 % 0.0 mm 745.0 W/m2 CLR
12:47 26.1 °C 13.2 °C 1013.8 hPa SW 25.9 km/h 25.9 km/h 45 % 0.0 mm 751.0 W/m2 CLR
12:52 26.7 °C 13.7 °C 1013.8 hPa SW 22.2 km/h 22.2 km/h 45 % 0.0 mm 754.0 W/m2 CLR
12:57 26.7 °C 13.7 °C 1013.8 hPa West 31.5 km/h 31.5 km/h 45 % 0.0 mm 761.0 W/m2 CLR
13:02 26.7 °C 14.1 °C 1013.8 hPa SW 27.4 km/h 27.4 km/h 46 % 0.0 mm 766.0 W/m2 CLR
13:08 26.7 °C 13.7 °C 1013.8 hPa WSW 24.1 km/h 24.1 km/h 45 % 0.0 mm 768.0 W/m2 CLR
13:13 26.7 °C 13.4 °C 1013.8 hPa WSW 31.5 km/h 31.5 km/h 44 % 0.0 mm 773.0 W/m2 CLR
13:18 26.7 °C 13.7 °C 1013.8 hPa WSW 22.2 km/h 22.2 km/h 45 % 0.0 mm 775.0 W/m2 CLR
13:23 26.7 °C 13.7 °C 1013.8 hPa West 27.8 km/h 27.8 km/h 45 % 0.0 mm 780.0 W/m2 CLR
13:28 27.2 °C 13.9 °C 1013.8 hPa SW 29.6 km/h 29.6 km/h 44 % 0.0 mm 782.0 W/m2 CLR
13:33 27.2 °C 13.9 °C 1013.8 hPa WSW 27.8 km/h 27.8 km/h 44 % 0.0 mm 784.0 W/m2 CLR
13:38 27.2 °C 14.3 °C 1013.4 hPa SW 25.9 km/h 25.9 km/h 45 % 0.0 mm 786.0 W/m2 CLR
13:43 27.2 °C 13.9 °C 1013.4 hPa SW 22.2 km/h 22.2 km/h 44 % 0.0 mm 789.0 W/m2 CLR
13:48 27.8 °C 14.4 °C 1013.4 hPa SW 20.4 km/h 20.4 km/h 44 % 0.0 mm 788.0 W/m2 CLR
13:53 27.8 °C 14.1 °C 1013.4 hPa WSW 29.0 km/h 29.0 km/h 43 % 0.0 mm 789.0 W/m2 CLR
13:58 27.2 °C 13.9 °C 1013.4 hPa West 20.9 km/h 20.9 km/h 44 % 0.0 mm 786.0 W/m2 CLR
14:03 27.2 °C 13.6 °C 1013.4 hPa WSW 31.5 km/h 31.5 km/h 43 % 0.0 mm 789.0 W/m2 CLR
14:08 27.8 °C 14.8 °C 1013.4 hPa WNW 18.5 km/h 18.5 km/h 45 % 0.0 mm 791.0 W/m2 CLR
14:13 27.2 °C 14.3 °C 1013.4 hPa West 20.4 km/h 20.4 km/h 45 % 0.0 mm 793.0 W/m2 CLR
14:18 27.2 °C 13.6 °C 1013.4 hPa WSW 20.4 km/h 20.4 km/h 43 % 0.0 mm 788.0 W/m2 CLR
14:23 27.2 °C 13.6 °C 1013.4 hPa SW 22.5 km/h 22.5 km/h 43 % 0.0 mm 800.0 W/m2 CLR
14:28 27.2 °C 13.9 °C 1013.1 hPa WNW 20.4 km/h 20.4 km/h 44 % 0.0 mm 782.0 W/m2 CLR
14:33 27.8 °C 14.1 °C 1013.4 hPa WSW 29.6 km/h 29.6 km/h 43 % 0.0 mm 779.0 W/m2 CLR
14:38 27.8 °C 14.1 °C 1013.1 hPa SW 25.9 km/h 25.9 km/h 43 % 0.0 mm 775.0 W/m2 CLR
14:43 27.8 °C 14.1 °C 1013.1 hPa WSW 22.2 km/h 22.2 km/h 43 % 0.0 mm 773.0 W/m2 CLR
14:48 27.8 °C 14.1 °C 1013.1 hPa West 24.1 km/h 24.1 km/h 43 % 0.0 mm 768.0 W/m2 CLR
14:53 28.3 °C 14.6 °C 1013.1 hPa West 33.3 km/h 33.3 km/h 43 % 0.0 mm 763.0 W/m2 CLR
14:58 28.3 °C 14.2 °C 1013.1 hPa WSW 25.9 km/h 25.9 km/h 42 % 0.0 mm 761.0 W/m2 CLR
15:03 27.8 °C 13.7 °C 1013.1 hPa West 29.6 km/h 29.6 km/h 42 % 0.0 mm 758.0 W/m2 CLR
15:08 28.3 °C 14.2 °C 1013.1 hPa WSW 24.1 km/h 24.1 km/h 42 % 0.0 mm 751.0 W/m2 CLR
15:13 28.3 °C 13.8 °C 1012.8 hPa West 32.2 km/h 32.2 km/h 41 % 0.0 mm 747.0 W/m2 CLR
15:18 28.3 °C 14.2 °C 1012.8 hPa WSW 31.5 km/h 31.5 km/h 42 % 0.0 mm 738.0 W/m2 CLR
15:23 28.3 °C 14.2 °C 1012.8 hPa WSW 24.1 km/h 24.1 km/h 42 % 0.0 mm 729.0 W/m2 CLR
15:28 28.3 °C 13.8 °C 1012.8 hPa West 38.9 km/h 38.9 km/h 41 % 0.0 mm 724.0 W/m2 CLR
15:33 28.3 °C 13.8 °C 1012.8 hPa West 33.3 km/h 33.3 km/h 41 % 0.0 mm 717.0 W/m2 CLR
15:38 28.3 °C 14.2 °C 1012.8 hPa SW 25.9 km/h 25.9 km/h 42 % 0.0 mm 708.0 W/m2 CLR
15:43 28.9 °C 14.7 °C 1012.8 hPa West 22.2 km/h 22.2 km/h 42 % 0.0 mm 700.0 W/m2 CLR
15:48 28.3 °C 14.6 °C 1012.8 hPa WNW 18.5 km/h 18.5 km/h 43 % 0.0 mm 689.0 W/m2 CLR
15:53 27.8 °C 13.7 °C 1012.4 hPa West 35.4 km/h 35.4 km/h 42 % 0.0 mm 686.0 W/m2 CLR
15:58 28.3 °C 14.2 °C 1012.4 hPa WNW 27.8 km/h 27.8 km/h 42 % 0.0 mm 675.0 W/m2 CLR
16:03 27.8 °C 14.4 °C 1012.4 hPa SW 25.9 km/h 25.9 km/h 44 % 0.0 mm 663.0 W/m2 CLR
16:08 27.8 °C 14.1 °C 1012.4 hPa West 27.8 km/h 27.8 km/h 43 % 0.0 mm 656.0 W/m2 CLR
16:13 27.8 °C 13.7 °C 1012.4 hPa WSW 31.5 km/h 31.5 km/h 42 % 0.0 mm 645.0 W/m2 CLR
16:18 28.3 °C 14.9 °C 1012.4 hPa WSW 22.2 km/h 22.2 km/h 44 % 0.0 mm 635.0 W/m2 CLR
16:23 27.8 °C 14.4 °C 1012.4 hPa WSW 24.1 km/h 24.1 km/h 44 % 0.0 mm 621.0 W/m2 CLR
16:28 27.8 °C 14.1 °C 1012.4 hPa West 35.2 km/h 35.2 km/h 43 % 0.0 mm 610.0 W/m2 CLR
16:33 27.8 °C 14.4 °C 1012.4 hPa WSW 27.8 km/h 27.8 km/h 44 % 0.0 mm 598.0 W/m2 CLR
16:38 27.8 °C 14.4 °C 1012.4 hPa West 22.2 km/h 22.2 km/h 44 % 0.0 mm 587.0 W/m2 CLR
16:43 27.2 °C 13.9 °C 1012.1 hPa WNW 37.0 km/h 37.0 km/h 44 % 0.0 mm 577.0 W/m2 CLR
16:48 27.8 °C 14.4 °C 1012.1 hPa West 46.3 km/h 46.3 km/h 44 % 0.0 mm 564.0 W/m2 CLR
16:53 27.8 °C 14.4 °C 1012.1 hPa WNW 22.2 km/h 22.2 km/h 44 % 0.0 mm 552.0 W/m2 CLR
16:58 27.8 °C 14.8 °C 1012.1 hPa WSW 31.5 km/h 31.5 km/h 45 % 0.0 mm 541.0 W/m2 CLR
17:03 27.8 °C 14.4 °C 1012.1 hPa West 20.9 km/h 20.9 km/h 44 % 0.0 mm 524.0 W/m2 CLR
17:08 27.8 °C 14.4 °C 1012.1 hPa West 29.6 km/h 29.6 km/h 44 % 0.0 mm 515.0 W/m2 CLR
17:13 27.2 °C 13.9 °C 1012.1 hPa West 29.0 km/h 29.0 km/h 44 % 0.0 mm 503.0 W/m2 CLR
17:18 27.2 °C 14.3 °C 1012.1 hPa NW 20.9 km/h 20.9 km/h 45 % 0.0 mm 489.0 W/m2 CLR
17:23 27.8 °C 14.4 °C 1012.1 hPa West 22.2 km/h 22.2 km/h 44 % 0.0 mm 476.0 W/m2 CLR
17:28 27.8 °C 14.8 °C 1012.1 hPa WSW 27.8 km/h 27.8 km/h 45 % 0.0 mm 454.0 W/m2 CLR
17:33 27.8 °C 14.8 °C 1012.1 hPa SW 24.1 km/h 24.1 km/h 45 % 0.0 mm 443.0 W/m2 CLR
17:38 27.8 °C 14.8 °C 1012.1 hPa West 20.4 km/h 20.4 km/h 45 % 0.0 mm 431.0 W/m2 CLR
17:43 27.2 °C 14.3 °C 1012.1 hPa West 31.5 km/h 31.5 km/h 45 % 0.0 mm 415.0 W/m2 CLR
17:48 27.2 °C 14.6 °C 1011.7 hPa WSW 18.5 km/h 18.5 km/h 46 % 0.0 mm 397.0 W/m2 CLR
17:53 27.2 °C 14.3 °C 1012.1 hPa West 20.4 km/h 20.4 km/h 45 % 0.0 mm 383.0 W/m2 CLR
17:58 27.2 °C 14.3 °C 1012.1 hPa WNW 27.8 km/h 27.8 km/h 45 % 0.0 mm 367.0 W/m2 CLR
18:03 27.2 °C 14.3 °C 1012.1 hPa West 24.1 km/h 24.1 km/h 45 % 0.0 mm 352.0 W/m2 CLR
18:08 26.7 °C 13.7 °C 1012.1 hPa WSW 24.1 km/h 24.1 km/h 45 % 0.0 mm 334.0 W/m2 CLR
18:13 26.7 °C 13.7 °C 1012.1 hPa SW 16.7 km/h 16.7 km/h 45 % 0.0 mm 318.0 W/m2 CLR
18:18 26.7 °C 13.7 °C 1012.1 hPa WNW 19.3 km/h 19.3 km/h 45 % 0.0 mm 302.0 W/m2 CLR
18:24 26.1 °C 13.2 °C 1012.1 hPa West 22.2 km/h 22.2 km/h 45 % 0.0 mm 288.0 W/m2 CLR
18:29 26.1 °C 13.6 °C 1012.1 hPa WSW 22.2 km/h 22.2 km/h 46 % 0.0 mm 272.0 W/m2 CLR
18:34 26.1 °C 13.6 °C 1012.1 hPa WNW 22.5 km/h 22.5 km/h 46 % 0.0 mm 255.0 W/m2 CLR
18:39 26.1 °C 13.6 °C 1012.1 hPa WNW 29.6 km/h 29.6 km/h 46 % 0.0 mm 239.0 W/m2 CLR
18:44 26.1 °C 13.6 °C 1012.1 hPa WSW 22.2 km/h 22.2 km/h 46 % 0.0 mm 223.0 W/m2 CLR
18:49 26.1 °C 13.6 °C 1012.1 hPa WSW 18.5 km/h 18.5 km/h 46 % 0.0 mm 204.0 W/m2 CLR
18:54 25.6 °C 13.1 °C 1012.4 hPa West 22.2 km/h 22.2 km/h 46 % 0.0 mm 183.0 W/m2 CLR
18:59 25.6 °C 13.1 °C 1012.1 hPa WSW 24.1 km/h 24.1 km/h 46 % 0.0 mm 165.0 W/m2 CLR
19:04 25.6 °C 13.1 °C 1012.1 hPa WSW 22.5 km/h 22.5 km/h 46 % 0.0 mm 148.0 W/m2 CLR
19:09 25.6 °C 13.4 °C 1012.1 hPa WSW 24.1 km/h 24.1 km/h 47 % 0.0 mm 130.0 W/m2 CLR
19:14 25.6 °C 13.4 °C 1012.4 hPa WSW 25.9 km/h 25.9 km/h 47 % 0.0 mm 111.0 W/m2 CLR
19:19 25.0 °C 12.9 °C 1012.4 hPa WSW 22.2 km/h 22.2 km/h 47 % 0.0 mm 97.0 W/m2 CLR
19:24 25.0 °C 13.2 °C 1012.4 hPa West 24.1 km/h 24.1 km/h 48 % 0.0 mm 79.0 W/m2 FEW
19:29 25.0 °C 13.2 °C 1012.4 hPa SW 22.2 km/h 22.2 km/h 48 % 0.0 mm 62.0 W/m2 SCT
19:34 25.0 °C 13.2 °C 1012.4 hPa West 20.4 km/h 20.4 km/h 48 % 0.0 mm 46.0 W/m2 SCT
19:39 24.4 °C 12.7 °C 1012.4 hPa West 18.5 km/h 18.5 km/h 48 % 0.0 mm 37.0 W/m2 BKN
19:44 24.4 °C 12.7 °C 1012.4 hPa WSW 16.7 km/h 16.7 km/h 48 % 0.0 mm 28.0 W/m2 BKN
19:49 24.4 °C 12.7 °C 1012.4 hPa WSW 22.2 km/h 22.2 km/h 48 % 0.0 mm 19.0 W/m2 BKN
19:51 24.4 °C 13.1 °C 1012.4 hPa WSW 20.4 km/h 20.4 km/h 49 % 0.0 mm 19.0 W/m2 BKN
19:56 23.9 °C 12.5 °C 1012.4 hPa WSW 14.8 km/h 14.8 km/h 49 % 0.0 mm 14.0 W/m2 BKN
20:01 23.9 °C 12.8 °C 1012.4 hPa SW 18.5 km/h 18.5 km/h 50 % 0.0 mm 11.0 W/m2 BKN
20:06 23.9 °C 12.8 °C 1012.4 hPa WSW 16.7 km/h 16.7 km/h 50 % 0.0 mm 9.0 W/m2 BKN
20:11 23.9 °C 13.1 °C 1012.4 hPa SSW 13.0 km/h 13.0 km/h 51 % 0.0 mm 7.0 W/m2 BKN
20:16 23.3 °C 12.6 °C 1012.8 hPa SW 14.8 km/h 14.8 km/h 51 % 0.0 mm 5.0 W/m2 OVC
20:21 23.3 °C 12.6 °C 1012.4 hPa WSW 16.7 km/h 16.7 km/h 51 % 0.0 mm 0.0 W/m2 OVC
20:26 22.8 °C 12.4 °C 1012.8 hPa Calm     52 % 0.0 mm 0.0 W/m2 CLR
20:31 22.2 °C 11.9 °C 1012.8 hPa WSW 16.7 km/h 16.7 km/h 52 % 0.0 mm 0.0 W/m2 CLR
20:36 22.2 °C 11.9 °C 1012.8 hPa WSW 16.7 km/h 16.7 km/h 52 % 0.0 mm 0.0 W/m2 CLR
20:41 21.7 °C 11.7 °C 1012.8 hPa Calm     53 % 0.0 mm 0.0 W/m2 CLR
20:46 21.7 °C 11.7 °C 1012.8 hPa SW 11.3 km/h 11.3 km/h 53 % 0.0 mm 0.0 W/m2 CLR
20:51 21.1 °C 11.2 °C 1012.8 hPa WSW 16.7 km/h 16.7 km/h 53 % 0.0 mm 0.0 W/m2 CLR
20:56 21.1 °C 11.2 °C 1012.8 hPa SW 13.0 km/h 13.0 km/h 53 % 0.0 mm 0.0 W/m2 CLR
21:01 20.6 °C 10.9 °C 1013.1 hPa Calm     54 % 0.0 mm 0.0 W/m2 CLR
21:06 20.6 °C 10.9 °C 1013.1 hPa SW 5.6 km/h   54 % 0.0 mm 0.0 W/m2 CLR
21:11 20.0 °C 10.7 °C 1013.1 hPa Calm     55 % 0.0 mm 0.0 W/m2 CLR
21:16 20.0 °C 10.7 °C 1013.1 hPa Calm     55 % 0.0 mm 0.0 W/m2 CLR
21:21 19.4 °C 10.2 °C 1013.1 hPa Calm     55 % 0.0 mm 0.0 W/m2 CLR
21:26 19.4 °C 10.4 °C 1013.1 hPa WSW 11.3 km/h 11.3 km/h 56 % 0.0 mm 0.0 W/m2 CLR
21:31 19.4 °C 10.4 °C 1013.4 hPa SSW 3.7 km/h 3.7 km/h 56 % 0.0 mm 0.0 W/m2 CLR
21:36 19.4 °C 10.4 °C 1013.4 hPa SW 14.8 km/h 14.8 km/h 56 % 0.0 mm 0.0 W/m2 CLR
21:41 19.4 °C 10.2 °C 1013.4 hPa WSW 16.1 km/h 16.1 km/h 55 % 0.0 mm 0.0 W/m2 CLR
21:46 20.0 °C 10.7 °C 1013.8 hPa SW 18.5 km/h 18.5 km/h 55 % 0.0 mm 0.0 W/m2 CLR
21:51 20.6 °C 11.4 °C 1013.8 hPa WSW 16.7 km/h 16.7 km/h 56 % 0.0 mm 0.0 W/m2 CLR
21:56 20.6 °C 11.4 °C 1013.8 hPa WSW 18.5 km/h 18.5 km/h 56 % 0.0 mm 0.0 W/m2 CLR
22:01 21.1 °C 12.0 °C 1013.8 hPa SW 20.4 km/h 20.4 km/h 56 % 0.0 mm 0.0 W/m2 CLR
22:06 21.1 °C 12.0 °C 1014.1 hPa SW 16.7 km/h 16.7 km/h 56 % 0.0 mm 0.0 W/m2 CLR
22:11 21.1 °C 12.0 °C 1014.1 hPa WSW 18.5 km/h 18.5 km/h 56 % 0.0 mm 0.0 W/m2 CLR
22:16 21.1 °C 12.0 °C 1014.1 hPa SW 18.5 km/h 18.5 km/h 56 % 0.0 mm 0.0 W/m2 CLR
22:21 21.1 °C 12.3 °C 1014.1 hPa SW 16.7 km/h 16.7 km/h 57 % 0.0 mm 0.0 W/m2 CLR
22:26 21.1 °C 12.3 °C 1014.4 hPa SW 22.5 km/h 22.5 km/h 57 % 0.0 mm 0.0 W/m2 CLR
22:31 20.6 °C 11.7 °C 1014.4 hPa West 20.9 km/h 20.9 km/h 57 % 0.0 mm 0.0 W/m2 CLR
22:36 20.6 °C 11.7 °C 1014.4 hPa SW 29.6 km/h 29.6 km/h 57 % 0.0 mm 0.0 W/m2 CLR
22:41 20.6 °C 11.7 °C 1014.4 hPa WSW 27.8 km/h 27.8 km/h 57 % 0.0 mm 0.0 W/m2 CLR
22:46 20.6 °C 11.7 °C 1014.4 hPa WSW 22.2 km/h 22.2 km/h 57 % 0.0 mm 0.0 W/m2 CLR
22:51 20.6 °C 12.0 °C 1014.4 hPa WSW 20.4 km/h 20.4 km/h 58 % 0.0 mm 0.0 W/m2 CLR
22:56 20.0 °C 11.5 °C 1014.4 hPa WSW 18.5 km/h 18.5 km/h 58 % 0.0 mm 0.0 W/m2 CLR
23:01 20.0 °C 11.5 °C 1014.4 hPa SSW 18.5 km/h 18.5 km/h 58 % 0.0 mm 0.0 W/m2 CLR
23:06 20.0 °C 11.5 °C 1014.4 hPa SW 13.0 km/h 13.0 km/h 58 % 0.0 mm 0.0 W/m2 CLR
23:11 20.0 °C 11.7 °C 1014.8 hPa SSW 11.3 km/h 11.3 km/h 59 % 0.0 mm 0.0 W/m2 CLR
23:16 19.4 °C 11.2 °C 1014.8 hPa SW 14.5 km/h 14.5 km/h 59 % 0.0 mm 0.0 W/m2 CLR
23:21 19.4 °C 11.2 °C 1014.8 hPa SSW 14.8 km/h 14.8 km/h 59 % 0.0 mm 0.0 W/m2 CLR
23:26 19.4 °C 11.2 °C 1014.8 hPa SSW 18.5 km/h 18.5 km/h 59 % 0.0 mm 0.0 W/m2 CLR
23:31 19.4 °C 11.5 °C 1014.8 hPa SSW 11.3 km/h 11.3 km/h 60 % 0.0 mm 0.0 W/m2 CLR
23:36 19.4 °C 11.5 °C 1014.8 hPa SSW 16.7 km/h 16.7 km/h 60 % 0.0 mm 0.0 W/m2 CLR
23:41 19.4 °C 11.5 °C 1014.8 hPa SSW 13.0 km/h 13.0 km/h 60 % 0.0 mm 0.0 W/m2 CLR
23:46 19.4 °C 11.5 °C 1014.8 hPa SSW 18.5 km/h 18.5 km/h 60 % 0.0 mm 0.0 W/m2 CLR
23:51 18.9 °C 11.2 °C 1015.1 hPa SSW 16.7 km/h 16.7 km/h 61 % 0.0 mm 0.0 W/m2 CLR
23:56 18.9 °C 11.2 °C 1015.1 hPa SSW 14.8 km/h 14.8 km/h 61 % 0.0 mm 0.0 W/m2 CLR
Lo Temps de Massalio
Compliments of Weather Underground - 1.25 mb